Time;durP1;ratioP1;P1;durP2;ratioP2;P2;SDS_P1;SDS_P2;PMS_P1;PMS_P2;Temp;Humidity;BMP_temperature;BMP_pressure;BME280_temperature;BME280_humidity;BME280_pressure;Samples;Min_cycle;Max_cycle;Signal;HPM_P1;HPM_P2
2022/07/31 00:01:14;;;;;;;;;;;;;;;25.43;46.53;98777.06;4389847;32;34528;-89
2022/07/31 00:03:42;;;;;;;;;;;;;;;25.60;46.16;98774.31;4390337;32;33325;-90
2022/07/31 00:06:09;;;;;;;;;;;;;;;25.44;46.56;98768.16;4390838;32;35103;-90
2022/07/31 00:08:36;;;;;;;;;;;;;;;25.28;46.84;98772.59;4390971;32;35178;-93
2022/07/31 00:11:04;;;;;;;;;;;;;;;25.32;46.76;98772.31;4390444;32;34488;-93
2022/07/31 00:13:31;;;;;;;;;;;;;;;24.88;47.55;98770.19;4390277;32;34279;-90
2022/07/31 00:16:19;;;;;;;;;;;;;;;25.65;46.08;98761.69;4379510;32;34938;-91
2022/07/31 00:18:46;;;;;;;;;;;;;;;25.34;46.33;98761.63;4390626;32;34426;-96
2022/07/31 00:21:14;;;;;;;;;;;;;;;24.98;47.14;98752.00;4383692;32;34372;-95
2022/07/31 00:23:41;;;;;;;;;;;;;;;24.47;48.61;98764.34;4379819;32;33806;-95
2022/07/31 00:26:09;;;;;;;;;;;;;;;24.69;48.25;98754.38;4385200;32;34120;-93
2022/07/31 00:28:36;;;;;;;;;;;;;;;24.37;49.07;98763.09;4393309;32;34115;-95
2022/07/31 00:31:24;;;;;;;;;;;;;;;24.98;47.25;98752.88;4387378;32;34440;-94
2022/07/31 00:33:51;;;;;;;;;;;;;;;24.74;48.09;98756.81;4392965;32;32902;-94
2022/07/31 00:36:18;;;;;;;;;;;;;;;24.33;48.90;98754.44;4379705;32;33672;-95
2022/07/31 00:38:56;;;;;;;;;;;;;;;24.70;48.14;98761.41;4382054;32;34172;-95
2022/07/31 00:41:23;;;;;;;;;;;;;;;24.20;49.53;98751.50;4394407;32;34126;-94
2022/07/31 00:43:50;;;;;;;;;;;;;;;24.25;49.25;98757.47;4386802;32;33383;-95
2022/07/31 00:46:18;;;;;;;;;;;;;;;24.75;47.88;98756.72;4381338;32;34692;-94
2022/07/31 00:48:48;;;;;;;;;;;;;;;24.25;49.42;98756.59;4393253;32;34447;-95
2022/07/31 00:51:15;;;;;;;;;;;;;;;23.68;50.11;98753.19;4394448;32;34488;-94
2022/07/31 00:53:43;;;;;;;;;;;;;;;23.74;50.36;98756.38;4396373;32;33726;-96
2022/07/31 00:56:10;;;;;;;;;;;;;;;23.16;51.85;98767.00;4392684;32;34119;-94
2022/07/31 00:58:37;;;;;;;;;;;;;;;24.14;49.19;98762.41;4393149;32;34768;-93
2022/07/31 01:01:05;;;;;;;;;;;;;;;23.04;52.04;98757.81;4391406;32;34321;-96
2022/07/31 01:03:33;;;;;;;;;;;;;;;23.93;49.64;98758.16;4392398;32;33279;-95
2022/07/31 01:06:00;;;;;;;;;;;;;;;24.27;48.70;98768.81;4392826;32;33635;-95
2022/07/31 01:08:28;;;;;;;;;;;;;;;24.46;48.24;98774.09;4385523;32;34423;-95
2022/07/31 01:11:22;;;;;;;;;;;;;;;24.72;47.26;98775.44;4392511;32;35315;-93
2022/07/31 01:13:51;;;;;;;;;;;;;;;25.18;46.01;98761.59;4390291;32;33456;-91
2022/07/31 01:16:19;;;;;;;;;;;;;;;24.31;48.45;98785.41;4391935;32;35613;-92
2022/07/31 01:18:46;;;;;;;;;;;;;;;24.61;47.59;98782.22;4380075;32;33736;-92
2022/07/31 01:21:20;;;;;;;;;;;;;;;24.76;47.53;98784.94;4378935;32;35214;-92
2022/07/31 01:23:52;;;;;;;;;;;;;;;25.48;45.16;98769.69;4394663;32;33594;-93
2022/07/31 01:26:34;;;;;;;;;;;;;;;24.16;48.78;98773.78;4391912;32;34447;-92
2022/07/31 01:29:22;;;;;;;;;;;;;;;25.12;46.32;98769.91;4395931;32;33905;-93
2022/07/31 01:32:03;;;;;;;;;;;;;;;25.18;46.47;98775.72;4395243;32;34510;-92
2022/07/31 01:34:33;;;;;;;;;;;;;;;25.61;44.59;98776.06;4379181;32;33310;-93
2022/07/31 01:37:11;;;;;;;;;;;;;;;25.29;45.35;98779.59;4385989;32;35296;-91
2022/07/31 01:39:42;;;;;;;;;;;;;;;24.97;46.59;98790.09;4338746;32;33464;-93
2022/07/31 01:42:10;;;;;;;;;;;;;;;25.67;44.71;98790.78;4374522;32;34178;-92
2022/07/31 01:44:41;;;;;;;;;;;;;;;24.28;48.18;98798.81;4378411;32;34424;-94
2022/07/31 01:47:08;;;;;;;;;;;;;;;24.70;47.10;98795.88;4379051;32;34835;-91
2022/07/31 01:49:36;;;;;;;;;;;;;;;25.13;45.98;98793.66;4379032;32;33755;-95
2022/07/31 01:52:04;;;;;;;;;;;;;;;25.15;45.74;98788.28;4380113;32;34614;-92
2022/07/31 01:54:33;;;;;;;;;;;;;;;24.65;47.20;98791.72;4377743;32;34606;-93
2022/07/31 01:57:01;;;;;;;;;;;;;;;24.12;48.29;98790.75;4378648;32;35284;-93
2022/07/31 01:59:28;;;;;;;;;;;;;;;25.05;46.01;98782.59;4366468;32;33906;-94
2022/07/31 02:02:03;;;;;;;;;;;;;;;24.76;46.70;98787.59;4378350;32;34551;-93
2022/07/31 02:04:31;;;;;;;;;;;;;;;25.59;44.68;98779.72;4380833;32;33392;-94
2022/07/31 02:06:59;;;;;;;;;;;;;;;25.02;45.91;98788.03;4377899;32;33783;-92
2022/07/31 02:09:28;;;;;;;;;;;;;;;25.08;45.86;98793.03;4366120;32;34481;-94
2022/07/31 02:11:56;;;;;;;;;;;;;;;25.76;44.06;98776.13;4374207;32;34185;-94
2022/07/31 02:14:23;;;;;;;;;;;;;;;25.41;44.99;98777.12;4381757;32;33077;-93
2022/07/31 02:16:50;;;;;;;;;;;;;;;24.09;47.98;98785.59;4381936;32;34128;-96
2022/07/31 02:19:19;;;;;;;;;;;;;;;24.44;47.27;98778.62;4382275;32;34039;-93
2022/07/31 02:21:49;;;;;;;;;;;;;;;25.06;45.76;98780.78;4380052;32;35157;-93
2022/07/31 02:24:16;;;;;;;;;;;;;;;24.75;46.42;98769.97;4394270;32;33563;-92
2022/07/31 02:26:44;;;;;;;;;;;;;;;25.40;44.58;98762.16;4395756;32;34270;-94
2022/07/31 02:29:12;;;;;;;;;;;;;;;23.68;48.90;98753.19;4381999;32;33350;-92
2022/07/31 02:31:47;;;;;;;;;;;;;;;23.55;49.25;98747.56;4382851;32;34435;-94
2022/07/31 02:34:30;;;;;;;;;;;;;;;24.05;48.10;98752.25;4395211;32;33375;-95
2022/07/31 02:36:58;;;;;;;;;;;;;;;23.57;49.47;98748.38;4381029;32;34075;-94
2022/07/31 02:39:26;;;;;;;;;;;;;;;24.43;47.05;98746.88;4381265;32;32909;-90
2022/07/31 02:41:59;;;;;;;;;;;;;;;24.00;48.20;98743.69;4365868;32;33954;-93
2022/07/31 02:44:37;;;;;;;;;;;;;;;23.16;50.41;98740.53;4369361;32;34974;-93
2022/07/31 02:47:04;;;;;;;;;;;;;;;23.54;48.98;98729.97;4368746;32;33581;-94
2022/07/31 02:49:33;;;;;;;;;;;;;;;23.41;49.49;98729.72;4370896;32;33726;-95
2022/07/31 02:52:00;;;;;;;;;;;;;;;22.86;51.11;98729.53;4381469;32;34273;-94
2022/07/31 02:54:28;;;;;;;;;;;;;;;23.95;47.65;98724.53;4395176;32;33092;-93
2022/07/31 02:56:56;;;;;;;;;;;;;;;22.53;51.61;98732.69;4381052;32;32702;-94
2022/07/31 02:59:24;;;;;;;;;;;;;;;22.94;49.89;98740.66;4376239;32;33385;-93
2022/07/31 03:01:53;;;;;;;;;;;;;;;22.54;51.35;98746.75;4395795;32;34352;-92
2022/07/31 03:04:21;;;;;;;;;;;;;;;22.95;50.12;98738.84;4395450;32;31818;-94
2022/07/31 03:06:49;;;;;;;;;;;;;;;23.08;49.54;98752.41;4395930;32;34269;-92
2022/07/31 03:09:16;;;;;;;;;;;;;;;22.82;50.73;98754.38;4391443;32;35188;-93
2022/07/31 03:11:44;;;;;;;;;;;;;;;23.64;48.58;98741.88;4382700;32;34435;-90
2022/07/31 03:14:11;;;;;;;;;;;;;;;23.92;47.00;98752.00;4378306;32;34108;-93
2022/07/31 03:16:39;;;;;;;;;;;;;;;23.66;48.03;98747.97;4369938;32;33663;-92
2022/07/31 03:19:08;;;;;;;;;;;;;;;23.04;49.48;98741.09;4380612;32;35646;-92
2022/07/31 03:21:35;;;;;;;;;;;;;;;23.11;49.46;98745.19;4380829;32;34324;-94
2022/07/31 03:24:02;;;;;;;;;;;;;;;23.19;48.95;98745.69;4379373;32;33673;-94
2022/07/31 03:26:30;;;;;;;;;;;;;;;24.09;46.93;98742.38;4379408;32;35033;-94
2022/07/31 03:28:59;;;;;;;;;;;;;;;23.72;47.73;98745.03;4379675;32;34547;-93
2022/07/31 03:31:28;;;;;;;;;;;;;;;24.21;46.85;98742.66;4392098;32;34821;-94
2022/07/31 03:33:57;;;;;;;;;;;;;;;24.49;46.25;98738.63;4393513;32;34566;-94
2022/07/31 03:36:25;;;;;;;;;;;;;;;24.06;47.21;98748.69;4387108;32;35168;-95
2022/07/31 03:38:53;;;;;;;;;;;;;;;24.31;46.60;98742.19;4393335;32;34386;-92
2022/07/31 03:41:21;;;;;;;;;;;;;;;24.39;46.34;98742.69;4393373;32;34620;-95
2022/07/31 03:43:49;;;;;;;;;;;;;;;24.34;46.39;98740.25;4393571;32;33414;-92
2022/07/31 03:46:17;;;;;;;;;;;;;;;23.52;48.78;98731.84;4393412;32;34454;-92
2022/07/31 03:48:46;;;;;;;;;;;;;;;23.60;48.76;98735.00;4393275;32;34311;-95
2022/07/31 03:51:14;;;;;;;;;;;;;;;24.30;46.96;98735.19;4367527;32;35602;-93
2022/07/31 03:53:41;;;;;;;;;;;;;;;23.96;47.73;98731.53;4382846;32;33621;-96
2022/07/31 03:56:10;;;;;;;;;;;;;;;23.92;47.45;98738.78;4368903;32;33959;-96
2022/07/31 03:58:38;;;;;;;;;;;;;;;24.18;46.81;98748.09;4355587;32;780920;-96
2022/07/31 04:01:06;;;;;;;;;;;;;;;24.24;46.59;98750.44;4394230;32;34232;-90
2022/07/31 04:03:38;;;;;;;;;;;;;;;23.94;47.56;98746.62;4383650;32;33296;-96
2022/07/31 04:06:06;;;;;;;;;;;;;;;23.63;48.01;98742.78;4398574;32;35572;-96
2022/07/31 04:08:33;;;;;;;;;;;;;;;23.84;47.78;98743.59;4395628;32;34615;-95
2022/07/31 04:11:01;;;;;;;;;;;;;;;23.46;48.60;98740.94;4397594;32;34141;-93
2022/07/31 04:13:28;;;;;;;;;;;;;;;23.83;47.69;98743.63;4396940;32;34309;-96
2022/07/31 04:15:56;;;;;;;;;;;;;;;23.84;47.26;98745.38;4395378;32;34356;-95
2022/07/31 04:18:23;;;;;;;;;;;;;;;24.24;46.33;98753.09;4400026;32;34009;-96
2022/07/31 04:20:50;;;;;;;;;;;;;;;24.45;46.10;98755.62;4397973;32;33973;-92
2022/07/31 04:23:18;;;;;;;;;;;;;;;24.19;46.46;98755.09;4396362;32;34668;-95
2022/07/31 04:25:50;;;;;;;;;;;;;;;23.54;48.28;98753.81;4396961;32;32459;-96
2022/07/31 04:28:20;;;;;;;;;;;;;;;23.56;48.02;98751.91;4375609;32;34288;-95
2022/07/31 04:30:48;;;;;;;;;;;;;;;23.66;48.01;98750.59;4395336;32;34545;-90
2022/07/31 04:33:17;;;;;;;;;;;;;;;23.97;47.22;98765.03;4391604;32;33702;-96
2022/07/31 04:35:44;;;;;;;;;;;;;;;23.73;47.45;98753.81;4391307;32;34369;-95
2022/07/31 04:38:12;;;;;;;;;;;;;;;23.65;47.62;98750.66;4392715;32;35351;-95
2022/07/31 04:40:41;;;;;;;;;;;;;;;23.42;48.14;98752.59;4378701;32;32651;-96
2022/07/31 04:43:11;;;;;;;;;;;;;;;23.43;48.19;98753.44;4392125;32;33623;-96
2022/07/31 04:45:39;;;;;;;;;;;;;;;23.08;49.08;98745.31;4392578;32;34057;-94
2022/07/31 04:48:06;;;;;;;;;;;;;;;23.68;47.67;98740.81;4392598;32;34374;-94
2022/07/31 04:50:34;;;;;;;;;;;;;;;23.30;48.57;98745.22;4391014;32;34113;-92
2022/07/31 04:53:02;;;;;;;;;;;;;;;23.44;48.41;98740.12;4391446;32;34409;-88
2022/07/31 04:55:30;;;;;;;;;;;;;;;23.11;49.30;98753.13;4390768;32;35199;-85
2022/07/31 04:57:57;;;;;;;;;;;;;;;23.17;49.13;98749.34;4392085;32;34022;-96
2022/07/31 05:00:25;;;;;;;;;;;;;;;23.07;48.84;98748.91;4378660;32;34416;-93
2022/07/31 05:02:53;;;;;;;;;;;;;;;22.88;49.74;98747.94;4394100;32;33310;-95
2022/07/31 05:05:21;;;;;;;;;;;;;;;23.77;47.67;98748.31;4391590;32;34181;-92
2022/07/31 05:07:48;;;;;;;;;;;;;;;23.74;47.63;98750.25;4382271;32;35323;-96
2022/07/31 05:13:06;;;;;;;;;;;;;;;23.69;47.69;98737.22;4360547;32;34229;-95
2022/07/31 05:15:34;;;;;;;;;;;;;;;22.80;50.07;98753.56;4392176;32;34158;-91
2022/07/31 05:18:02;;;;;;;;;;;;;;;23.15;49.34;98752.06;4391942;32;34086;-96
2022/07/31 05:20:30;;;;;;;;;;;;;;;23.15;49.04;98748.56;4391406;32;34177;-95
2022/07/31 05:22:58;;;;;;;;;;;;;;;22.83;50.08;98753.44;4392133;32;33970;-96
2022/07/31 05:25:28;;;;;;;;;;;;;;;22.98;49.75;98754.59;4391629;32;35031;-91
2022/07/31 05:27:55;;;;;;;;;;;;;;;21.96;53.02;98754.44;4366064;32;35121;-93
2022/07/31 05:30:23;;;;;;;;;;;;;;;22.18;53.50;98755.31;4376366;32;33370;-95
2022/07/31 05:32:58;;;;;;;;;;;;;;;22.04;54.20;98762.88;4390020;32;34489;-94
2022/07/31 05:35:26;;;;;;;;;;;;;;;22.31;53.71;98766.22;4390413;32;33988;-95
2022/07/31 05:37:54;;;;;;;;;;;;;;;21.89;54.91;98760.88;4380894;32;33886;-96
2022/07/31 05:40:31;;;;;;;;;;;;;;;21.29;56.42;98756.09;4379800;32;33970;-96
2022/07/31 05:43:03;;;;;;;;;;;;;;;22.05;55.11;98760.22;4380491;32;33704;-96
2022/07/31 05:45:31;;;;;;;;;;;;;;;21.76;55.49;98769.28;4379815;32;35042;-96
2022/07/31 05:47:58;;;;;;;;;;;;;;;21.76;55.52;98771.91;4379267;32;34245;-96
2022/07/31 05:50:25;;;;;;;;;;;;;;;22.31;53.92;98774.13;4380232;32;35019;-96
2022/07/31 05:52:54;;;;;;;;;;;;;;;22.24;53.60;98765.63;4380374;32;33188;-96
2022/07/31 05:55:21;;;;;;;;;;;;;;;21.44;55.60;98772.28;4363884;32;33145;-96
2022/07/31 05:57:49;;;;;;;;;;;;;;;22.34;53.97;98766.94;4378132;32;34343;-90
2022/07/31 06:00:17;;;;;;;;;;;;;;;23.31;51.14;98768.94;4378098;32;34242;-95
2022/07/31 06:02:46;;;;;;;;;;;;;;;23.02;51.02;98774.66;4379987;32;33743;-95
2022/07/31 06:05:13;;;;;;;;;;;;;;;22.74;51.60;98781.13;4363999;32;34171;-96
2022/07/31 06:07:41;;;;;;;;;;;;;;;22.80;51.73;98786.12;4379167;32;34110;-96
2022/07/31 06:10:17;;;;;;;;;;;;;;;22.23;53.54;98778.88;4379230;32;34440;-95
2022/07/31 06:12:44;;;;;;;;;;;;;;;23.10;50.85;98782.25;4377744;32;33712;-95
2022/07/31 06:15:12;;;;;;;;;;;;;;;22.58;52.18;98780.06;4378724;32;35152;-95
2022/07/31 06:17:42;;;;;;;;;;;;;;;22.65;52.15;98786.78;4364776;32;35354;-96
2022/07/31 06:20:11;;;;;;;;;;;;;;;22.95;51.70;98783.78;4378896;32;34557;-96
2022/07/31 06:22:39;;;;;;;;;;;;;;;23.20;50.72;98779.16;4378859;32;32715;-96
2022/07/31 06:25:10;;;;;;;;;;;;;;;22.73;51.71;98786.47;4380171;32;34835;-95
2022/07/31 06:27:40;;;;;;;;;;;;;;;22.25;52.49;98791.09;4377384;32;34920;-96
2022/07/31 06:30:08;;;;;;;;;;;;;;;22.99;51.09;98790.66;4377483;32;34065;-96
2022/07/31 06:32:36;;;;;;;;;;;;;;;23.13;50.70;98792.72;4377981;32;33160;-96
2022/07/31 06:35:04;;;;;;;;;;;;;;;22.99;51.34;98796.81;4379146;32;34760;-96
2022/07/31 06:37:32;;;;;;;;;;;;;;;22.67;53.12;98789.37;4377835;32;35074;-95
2022/07/31 06:40:00;;;;;;;;;;;;;;;21.90;54.37;98791.63;4351330;32;33455;-95
2022/07/31 06:42:30;;;;;;;;;;;;;;;22.53;52.78;98787.31;4378667;32;32549;-95
2022/07/31 06:45:10;;;;;;;;;;;;;;;22.84;52.39;98797.44;4376246;32;33748;-95
2022/07/31 06:47:45;;;;;;;;;;;;;;;22.87;52.08;98796.47;4379503;32;33516;-96
2022/07/31 06:50:13;;;;;;;;;;;;;;;22.88;51.37;98806.09;4364913;32;35618;-96
2022/07/31 06:52:44;;;;;;;;;;;;;;;23.26;50.58;98799.16;4377950;32;34519;-95
2022/07/31 06:55:11;;;;;;;;;;;;;;;22.70;52.13;98799.84;4377951;32;34850;-96
2022/07/31 06:57:38;;;;;;;;;;;;;;;23.21;50.83;98802.00;4377391;32;34046;-94
2022/07/31 07:00:06;;;;;;;;;;;;;;;23.07;51.16;98809.72;4377540;32;33685;-94
2022/07/31 07:02:47;;;;;;;;;;;;;;;23.13;51.02;98798.84;4366339;32;31975;-95
2022/07/31 07:05:15;;;;;;;;;;;;;;;22.06;53.27;98803.31;4377856;32;34003;-94
2022/07/31 07:07:44;;;;;;;;;;;;;;;21.50;54.70;98795.78;4363546;32;34500;-95
2022/07/31 07:10:13;;;;;;;;;;;;;;;21.87;53.68;98793.47;4377234;32;34755;-96
2022/07/31 07:12:40;;;;;;;;;;;;;;;22.28;52.61;98801.56;4377091;32;34288;-95
2022/07/31 07:15:09;;;;;;;;;;;;;;;21.85;53.58;98800.56;4377680;32;34584;-96
2022/07/31 07:17:57;;;;;;;;;;;;;;;21.34;55.22;98799.00;4364754;32;33249;-93
2022/07/31 07:20:25;;;;;;;;;;;;;;;21.74;53.75;98781.66;4376693;32;34615;-92
2022/07/31 07:22:53;;;;;;;;;;;;;;;21.70;53.66;98785.31;4377398;32;32875;-94
2022/07/31 07:25:21;;;;;;;;;;;;;;;21.96;53.03;98794.03;4376624;32;34766;-92
2022/07/31 07:27:49;;;;;;;;;;;;;;;21.51;54.21;98782.53;4376511;32;34010;-94
2022/07/31 07:30:16;;;;;;;;;;;;;;;23.29;49.16;98784.00;4377011;32;35262;-96
2022/07/31 07:32:44;;;;;;;;;;;;;;;22.75;51.04;98782.84;4376543;32;33489;-93
2022/07/31 07:35:11;;;;;;;;;;;;;;;22.77;50.86;98775.72;4365344;32;33796;-93
2022/07/31 07:37:41;;;;;;;;;;;;;;;21.99;52.41;98780.72;4370830;32;33376;-92
2022/07/31 07:40:08;;;;;;;;;;;;;;;22.19;52.10;98780.78;4382704;32;34357;-93
2022/07/31 07:42:36;;;;;;;;;;;;;;;21.57;53.67;98784.94;4381239;32;33018;-92
2022/07/31 07:45:05;;;;;;;;;;;;;;;22.14;51.97;98774.84;4378314;32;33605;-92
2022/07/31 07:47:35;;;;;;;;;;;;;;;21.83;52.63;98776.03;4367050;32;34049;-95
2022/07/31 07:50:49;;;;;;;;;;;;;;;22.26;51.80;98776.97;4363638;32;34404;-95
2022/07/31 07:53:17;;;;;;;;;;;;;;;22.34;51.20;98782.78;4381184;32;33699;-95
2022/07/31 07:55:46;;;;;;;;;;;;;;;22.63;50.92;98788.66;4378118;32;33786;-92
2022/07/31 07:58:39;;;;;;;;;;;;;;;22.29;51.50;98784.78;4382070;32;33895;-85
2022/07/31 08:01:11;;;;;;;;;;;;;;;22.21;51.74;98791.31;4379114;32;34466;-94
2022/07/31 08:03:39;;;;;;;;;;;;;;;22.08;52.06;98785.59;4379085;32;34580;-96
2022/07/31 08:06:18;;;;;;;;;;;;;;;22.94;50.49;98782.94;4381265;32;34154;-94
2022/07/31 08:08:46;;;;;;;;;;;;;;;22.75;50.77;98792.56;4379654;32;34498;-89
2022/07/31 08:11:16;;;;;;;;;;;;;;;22.54;50.56;98789.03;4379310;32;32976;-93
2022/07/31 08:14:04;;;;;;;;;;;;;;;22.52;51.14;98788.25;4365913;32;33549;-91
2022/07/31 08:16:33;;;;;;;;;;;;;;;22.06;51.80;98804.16;4378065;32;33719;-91
2022/07/31 08:19:02;;;;;;;;;;;;;;;22.72;50.55;98796.19;4379073;32;34588;-94
2022/07/31 08:21:30;;;;;;;;;;;;;;;22.36;51.10;98797.75;4377001;32;34250;-89
2022/07/31 08:23:58;;;;;;;;;;;;;;;22.75;50.79;98809.28;4378435;32;33239;-95
2022/07/31 08:26:25;;;;;;;;;;;;;;;22.67;49.89;98803.47;4379264;32;34359;-91
2022/07/31 08:28:54;;;;;;;;;;;;;;;22.56;50.31;98803.03;4377665;32;35230;-91
2022/07/31 08:31:22;;;;;;;;;;;;;;;23.26;48.84;98804.44;4378707;32;34367;-91
2022/07/31 08:33:51;;;;;;;;;;;;;;;22.88;49.68;98803.44;4377485;32;33596;-95
2022/07/31 08:36:19;;;;;;;;;;;;;;;24.08;47.56;98799.78;4364712;32;33456;-95
2022/07/31 08:39:05;;;;;;;;;;;;;;;24.50;46.44;98809.25;4379465;32;34089;-94
2022/07/31 08:41:37;;;;;;;;;;;;;;;23.72;47.11;98795.31;4378796;32;33269;-94
2022/07/31 08:44:06;;;;;;;;;;;;;;;23.77;47.09;98785.38;4366583;32;34273;-96
2022/07/31 08:46:51;;;;;;;;;;;;;;;23.66;47.08;98800.00;4377633;32;34575;-94
2022/07/31 08:49:18;;;;;;;;;;;;;;;24.20;46.03;98809.78;4377540;32;33941;-94
2022/07/31 08:51:46;;;;;;;;;;;;;;;23.35;47.55;98806.69;4376325;32;34162;-93
2022/07/31 08:54:22;;;;;;;;;;;;;;;23.14;47.68;98813.78;4363513;32;32273;-94
2022/07/31 08:56:52;;;;;;;;;;;;;;;23.45;47.74;98809.75;4362741;32;35114;-93
2022/07/31 08:59:19;;;;;;;;;;;;;;;22.41;49.20;98809.81;4362903;32;34369;-95
2022/07/31 09:01:48;;;;;;;;;;;;;;;23.13;47.69;98827.09;4363283;32;33885;-94
2022/07/31 09:04:15;;;;;;;;;;;;;;;22.99;48.09;98825.03;4352107;32;34001;-94
2022/07/31 09:07:22;;;;;;;;;;;;;;;23.34;46.81;98820.00;4375890;32;34069;-92
2022/07/31 09:09:50;;;;;;;;;;;;;;;23.38;47.03;98833.00;4376064;32;34873;-94
2022/07/31 09:12:26;;;;;;;;;;;;;;;22.40;49.68;98820.47;4377669;32;34199;-94
2022/07/31 09:15:01;;;;;;;;;;;;;;;22.77;48.26;98827.72;4365155;32;33414;-90
2022/07/31 09:17:35;;;;;;;;;;;;;;;22.19;49.46;98820.37;4377237;32;33301;-91
2022/07/31 09:20:02;;;;;;;;;;;;;;;21.61;51.17;98830.53;4377090;32;35115;-93
2022/07/31 09:22:31;;;;;;;;;;;;;;;22.16;49.55;98833.75;4378185;32;34738;-93
2022/07/31 09:25:10;;;;;;;;;;;;;;;22.33;49.83;98833.91;4378113;32;33670;-94
2022/07/31 09:27:38;;;;;;;;;;;;;;;21.91;51.31;98830.31;4364166;32;34562;-91
2022/07/31 09:30:06;;;;;;;;;;;;;;;21.48;51.76;98853.00;4364204;32;33938;-91
2022/07/31 09:32:38;;;;;;;;;;;;;;;22.06;50.84;98842.91;4377159;32;34452;-91
2022/07/31 09:35:08;;;;;;;;;;;;;;;21.36;52.16;98847.25;4378552;32;33621;-90
2022/07/31 09:37:36;;;;;;;;;;;;;;;22.07;50.61;98836.69;4363886;32;34699;-77
2022/07/31 09:40:08;;;;;;;;;;;;;;;21.59;51.69;98835.00;4378153;32;34328;-87
2022/07/31 09:42:42;;;;;;;;;;;;;;;21.76;52.13;98831.75;4378034;32;34288;-92
2022/07/31 09:45:22;;;;;;;;;;;;;;;22.26;50.27;98827.16;4377444;32;33553;-94
2022/07/31 09:48:04;;;;;;;;;;;;;;;21.44;52.24;98831.19;4377424;32;33922;-88
2022/07/31 09:50:32;;;;;;;;;;;;;;;22.11;50.33;98807.47;4351119;32;33235;-93
2022/07/31 09:53:01;;;;;;;;;;;;;;;21.37;52.48;98814.72;4363873;32;34197;-93
2022/07/31 09:55:37;;;;;;;;;;;;;;;21.92;51.27;98817.03;4379096;32;33298;-96
2022/07/31 09:58:05;;;;;;;;;;;;;;;22.07;51.00;98831.41;4369024;32;34236;-95
2022/07/31 10:00:32;;;;;;;;;;;;;;;22.77;49.26;98840.94;4380148;32;33814;-91
2022/07/31 10:03:00;;;;;;;;;;;;;;;21.80;51.35;98828.94;4377712;32;33846;-96
2022/07/31 10:05:47;;;;;;;;;;;;;;;22.71;49.21;98823.53;4377694;32;34328;-96
2022/07/31 10:08:16;;;;;;;;;;;;;;;22.27;50.46;98830.62;4363064;32;33154;-95
2022/07/31 10:10:44;;;;;;;;;;;;;;;22.74;49.30;98820.78;4377557;32;35032;-96
2022/07/31 10:13:17;;;;;;;;;;;;;;;22.82;49.01;98821.31;4363654;32;34065;-91
2022/07/31 10:15:45;;;;;;;;;;;;;;;22.27;49.83;98822.72;4378477;32;33287;-94
2022/07/31 10:18:14;;;;;;;;;;;;;;;22.36;50.44;98811.81;4364014;32;34083;-90
2022/07/31 10:20:43;;;;;;;;;;;;;;;22.65;49.70;98822.94;4364277;32;35332;-95
2022/07/31 10:23:18;;;;;;;;;;;;;;;22.44;49.97;98822.06;4367201;32;34396;-96
2022/07/31 10:25:47;;;;;;;;;;;;;;;22.42;49.91;98830.03;4364348;32;33463;-96
2022/07/31 10:28:21;;;;;;;;;;;;;;;21.68;51.29;98812.72;4364629;32;34447;-80
2022/07/31 10:30:48;;;;;;;;;;;;;;;22.07;50.87;98813.78;4378926;32;34062;-94
2022/07/31 10:33:21;;;;;;;;;;;;;;;22.22;50.81;98819.41;4365931;32;34144;-95
2022/07/31 10:36:20;;;;;;;;;;;;;;;22.75;49.17;98826.91;4379542;32;33294;-93
2022/07/31 10:39:07;;;;;;;;;;;;;;;23.36;47.41;98823.41;4367410;32;34690;-95
2022/07/31 10:41:45;;;;;;;;;;;;;;;22.79;48.59;98831.16;4364483;32;34140;-94
2022/07/31 10:44:22;;;;;;;;;;;;;;;22.75;48.43;98826.91;4364980;32;35298;-86
2022/07/31 10:46:49;;;;;;;;;;;;;;;22.20;50.19;98826.53;4363546;32;33522;-95
2022/07/31 10:49:19;;;;;;;;;;;;;;;22.28;50.24;98827.97;4376879;32;33506;-91
2022/07/31 10:51:50;;;;;;;;;;;;;;;22.25;49.60;98841.28;4363847;32;33833;-86
2022/07/31 10:54:19;;;;;;;;;;;;;;;22.37;48.98;98834.63;4363738;32;35039;-90
2022/07/31 10:56:47;;;;;;;;;;;;;;;22.17;50.09;98835.44;4363415;32;33679;-89
2022/07/31 10:59:15;;;;;;;;;;;;;;;22.28;49.15;98838.53;4363155;32;34174;-86
2022/07/31 11:01:46;;;;;;;;;;;;;;;22.46;48.84;98846.59;4362909;32;34366;-79
2022/07/31 11:04:33;;;;;;;;;;;;;;;22.08;48.58;98854.25;4363661;32;34482;-83
2022/07/31 11:07:12;;;;;;;;;;;;;;;22.38;48.28;98851.34;4363625;32;33169;-85
2022/07/31 11:09:40;;;;;;;;;;;;;;;22.98;47.38;98852.41;4363046;32;34757;-85
2022/07/31 11:12:24;;;;;;;;;;;;;;;22.68;47.42;98855.38;4364680;32;34234;-88
2022/07/31 11:14:52;;;;;;;;;;;;;;;23.37;45.15;98860.38;4376623;32;34013;-88
2022/07/31 11:17:29;;;;;;;;;;;;;;;23.01;45.92;98860.22;4376159;32;34064;-86
2022/07/31 11:20:22;;;;;;;;;;;;;;;23.64;45.32;98870.66;4376764;32;34990;-89
2022/07/31 11:22:58;;;;;;;;;;;;;;;23.25;44.96;98869.72;4376647;32;34487;-85
2022/07/31 11:25:31;;;;;;;;;;;;;;;23.45;45.14;98862.69;4363129;32;35086;-86
2022/07/31 11:28:10;;;;;;;;;;;;;;;23.53;45.31;98872.00;4375275;32;33512;-93
2022/07/31 11:30:47;;;;;;;;;;;;;;;23.67;44.79;98878.50;4377754;32;35248;-92
2022/07/31 11:33:15;;;;;;;;;;;;;;;23.50;44.76;98869.50;4378023;32;34245;-93
2022/07/31 11:35:42;;;;;;;;;;;;;;;23.38;45.02;98872.69;4364783;32;34401;-95
2022/07/31 11:38:10;;;;;;;;;;;;;;;23.01;44.78;98869.00;4377539;32;34464;-93
2022/07/31 11:40:37;;;;;;;;;;;;;;;23.79;43.83;98880.59;4376684;32;34137;-95
2022/07/31 11:43:07;;;;;;;;;;;;;;;24.43;43.42;98882.03;4377411;32;33715;-92
2022/07/31 11:45:53;;;;;;;;;;;;;;;24.15;43.24;98885.97;4377511;32;34179;-93
2022/07/31 11:48:22;;;;;;;;;;;;;;;23.96;43.98;98890.41;4376428;32;33806;-89
2022/07/31 11:50:53;;;;;;;;;;;;;;;24.30;43.69;98876.44;4376434;32;34891;-82
2022/07/31 11:53:20;;;;;;;;;;;;;;;24.42;43.60;98893.56;4376845;32;35261;-88
2022/07/31 11:55:49;;;;;;;;;;;;;;;23.30;44.70;98872.19;4376173;32;34454;-93
2022/07/31 11:58:18;;;;;;;;;;;;;;;24.04;43.21;98870.56;4368733;32;33956;-90
2022/07/31 12:00:54;;;;;;;;;;;;;;;23.62;43.88;98891.06;4390547;32;33939;-89
2022/07/31 12:03:23;;;;;;;;;;;;;;;24.53;42.85;98883.31;4361906;32;32622;-94
2022/07/31 12:05:51;;;;;;;;;;;;;;;24.09;43.29;98885.38;4389568;32;34786;-87
2022/07/31 12:08:18;;;;;;;;;;;;;;;24.18;42.80;98884.97;4390394;32;33486;-85
2022/07/31 12:10:54;;;;;;;;;;;;;;;24.19;42.01;98897.28;4388164;32;34005;-86
2022/07/31 12:13:22;;;;;;;;;;;;;;;23.41;43.08;98891.09;4385157;32;34274;-91
2022/07/31 12:16:01;;;;;;;;;;;;;;;23.50;43.78;98892.47;4379640;32;34534;-91
2022/07/31 12:18:29;;;;;;;;;;;;;;;24.55;41.38;98885.88;4390822;32;33514;-90
2022/07/31 12:21:01;;;;;;;;;;;;;;;24.73;40.57;98888.47;4391061;32;34055;-90
2022/07/31 12:23:42;;;;;;;;;;;;;;;24.49;40.30;98879.94;4389907;32;34102;-88
2022/07/31 12:26:11;;;;;;;;;;;;;;;23.67;42.72;98889.06;4390543;32;34275;-93
2022/07/31 12:28:39;;;;;;;;;;;;;;;23.77;42.59;98888.59;4377513;32;34167;-94
2022/07/31 12:31:06;;;;;;;;;;;;;;;24.20;41.63;98894.53;4377061;32;34074;-90
2022/07/31 12:33:40;;;;;;;;;;;;;;;23.52;42.70;98885.28;4391182;32;35311;-88
2022/07/31 12:36:11;;;;;;;;;;;;;;;23.35;42.71;98899.28;4390823;32;35237;-93
2022/07/31 12:38:38;;;;;;;;;;;;;;;23.08;43.99;98889.91;4377331;32;34781;-94
2022/07/31 12:41:12;;;;;;;;;;;;;;;22.78;44.39;98899.00;4376272;32;33489;-77
2022/07/31 12:43:39;;;;;;;;;;;;;;;22.58;44.57;98914.81;4389631;32;34448;-89
2022/07/31 12:46:19;;;;;;;;;;;;;;;22.62;44.95;98916.41;4390580;32;34170;-87
2022/07/31 12:48:46;;;;;;;;;;;;;;;22.78;44.64;98914.88;4390625;32;33579;-89
2022/07/31 12:51:15;;;;;;;;;;;;;;;22.73;45.03;98903.63;4390366;32;33877;-87
2022/07/31 12:53:43;;;;;;;;;;;;;;;23.33;43.96;98908.19;4389763;32;35102;-88
2022/07/31 12:56:11;;;;;;;;;;;;;;;22.71;45.12;98909.88;4390108;32;34499;-89
2022/07/31 12:58:38;;;;;;;;;;;;;;;23.63;43.05;98898.91;4388580;32;33666;-91
2022/07/31 13:01:05;;;;;;;;;;;;;;;23.65;43.41;98902.34;4390254;32;34831;-89
2022/07/31 13:03:33;;;;;;;;;;;;;;;24.32;41.71;98908.12;4390371;32;34418;-86
2022/07/31 13:06:13;;;;;;;;;;;;;;;23.19;43.10;98914.97;4390295;32;34587;-84
2022/07/31 13:08:42;;;;;;;;;;;;;;;22.33;45.07;98899.94;4389269;32;33378;-88